createdAt,value
2016-12-31T00:00:56.225Z,7.33
2016-12-31T00:02:04.931Z,7.25
2016-12-31T00:03:13.632Z,7.28
2016-12-31T00:04:22.332Z,7.18
2016-12-31T00:05:31.034Z,7.1
2016-12-31T00:06:39.734Z,7.19
2016-12-31T00:07:48.437Z,7.15
2016-12-31T00:08:57.144Z,7.18
2016-12-31T00:10:05.845Z,7.11
2016-12-31T00:11:14.543Z,7.04
2016-12-31T00:12:23.244Z,7.04
2016-12-31T00:13:31.954Z,6.97
2016-12-31T00:14:40.657Z,6.95
2016-12-31T00:15:49.359Z,6.92
2016-12-31T00:16:58.060Z,6.78
2016-12-31T00:18:06.761Z,6.74
2016-12-31T00:19:15.468Z,6.78
2016-12-31T00:20:24.168Z,6.83
2016-12-31T00:21:32.866Z,6.72
2016-12-31T00:22:41.566Z,6.83
2016-12-31T00:23:50.267Z,6.74
2016-12-31T00:24:58.968Z,6.8
2016-12-31T00:26:07.672Z,6.77
2016-12-31T00:27:16.374Z,6.74
2016-12-31T00:28:25.072Z,6.72
2016-12-31T00:29:33.768Z,6.85
2016-12-31T00:30:42.466Z,6.74
2016-12-31T00:31:51.171Z,6.83
2016-12-31T00:32:59.874Z,6.78
2016-12-31T00:34:08.578Z,6.72
2016-12-31T00:35:17.278Z,6.75
2016-12-31T00:36:25.978Z,6.74
2016-12-31T00:37:34.676Z,6.78
2016-12-31T00:38:43.374Z,6.77
2016-12-31T00:39:52.075Z,6.78
2016-12-31T00:41:00.798Z,6.87
2016-12-31T00:42:09.502Z,6.82
2016-12-31T00:43:18.201Z,6.78
2016-12-31T00:44:26.905Z,6.75
2016-12-31T00:45:35.608Z,6.8
2016-12-31T00:46:44.308Z,6.89
2016-12-31T00:47:53.014Z,6.78
2016-12-31T00:49:01.715Z,6.89
2016-12-31T00:50:10.420Z,6.93
2016-12-31T00:51:19.117Z,6.93
2016-12-31T00:52:27.815Z,6.93
2016-12-31T00:53:36.540Z,6.96
2016-12-31T00:54:45.240Z,7.01
2016-12-31T00:55:53.940Z,7.05
2016-12-31T00:57:02.644Z,7.05
2016-12-31T00:58:11.347Z,7.03
2016-12-31T00:59:20.045Z,7.13
2016-12-31T01:00:28.759Z,7.15
2016-12-31T01:01:37.458Z,7.13
2016-12-31T01:02:46.155Z,7.21
2016-12-31T01:03:55.208Z,7.15
2016-12-31T01:05:03.938Z,7.13
2016-12-31T01:06:12.636Z,7.13
2016-12-31T01:07:21.334Z,7.18
2016-12-31T01:08:30.035Z,7.18
2016-12-31T01:09:38.735Z,7.22
2016-12-31T01:10:47.466Z,7.18
2016-12-31T01:11:56.189Z,7.21
2016-12-31T01:13:04.886Z,7.28
2016-12-31T01:14:13.586Z,7.26
2016-12-31T01:15:22.289Z,7.32
2016-12-31T01:16:30.989Z,7.32
2016-12-31T01:17:39.686Z,7.29
2016-12-31T01:18:48.391Z,7.28
2016-12-31T01:19:57.090Z,7.43
2016-12-31T01:21:05.793Z,7.46
2016-12-31T01:22:14.503Z,7.37
2016-12-31T01:23:23.240Z,7.31
2016-12-31T01:24:31.937Z,7.26
2016-12-31T01:25:40.637Z,7.31
2016-12-31T01:26:49.736Z,7.28
2016-12-31T01:27:58.434Z,7.26
2016-12-31T01:29:07.136Z,7.26
2016-12-31T01:30:15.839Z,7.29
2016-12-31T01:31:24.540Z,7.29
2016-12-31T01:32:33.248Z,7.37
2016-12-31T01:33:41.949Z,7.4
2016-12-31T01:34:50.652Z,7.47
2016-12-31T01:35:59.348Z,7.48
2016-12-31T01:37:08.060Z,7.53
2016-12-31T01:38:16.762Z,7.48
2016-12-31T01:39:25.467Z,7.51
2016-12-31T01:40:34.191Z,7.58
2016-12-31T01:41:42.897Z,7.59
2016-12-31T01:42:51.593Z,7.59
2016-12-31T01:44:00.375Z,7.66
2016-12-31T01:45:09.075Z,7.7
2016-12-31T01:46:17.802Z,7.77
2016-12-31T01:47:26.506Z,7.64
2016-12-31T01:48:35.203Z,7.67
2016-12-31T01:49:43.906Z,7.64
2016-12-31T01:50:52.607Z,7.78
2016-12-31T01:52:01.306Z,7.87
2016-12-31T01:53:10.009Z,7.77
2016-12-31T01:54:18.713Z,7.72
2016-12-31T01:55:27.461Z,7.84
2016-12-31T01:56:36.163Z,7.78
2016-12-31T01:57:44.861Z,7.77
2016-12-31T01:58:53.563Z,7.77
2016-12-31T02:00:02.266Z,7.8
2016-12-31T02:01:10.970Z,7.8
2016-12-31T02:02:19.670Z,7.9
2016-12-31T02:03:28.373Z,7.88
2016-12-31T02:04:37.070Z,7.95
2016-12-31T02:05:45.772Z,7.88
2016-12-31T02:06:54.482Z,7.91
2016-12-31T02:08:03.189Z,7.91
2016-12-31T02:09:11.885Z,7.93
2016-12-31T02:10:20.589Z,7.98
2016-12-31T02:11:29.320Z,7.96
2016-12-31T02:12:38.022Z,8.03
2016-12-31T02:13:46.717Z,8.01
2016-12-31T02:14:55.417Z,8.05
2016-12-31T02:16:04.143Z,8.03
2016-12-31T02:17:12.845Z,8.06
2016-12-31T02:18:21.543Z,8.08
2016-12-31T02:19:30.250Z,7.99
2016-12-31T02:20:38.950Z,8.06
2016-12-31T02:21:47.650Z,7.95
2016-12-31T02:22:56.348Z,7.96
2016-12-31T02:24:05.079Z,7.95
2016-12-31T02:25:13.786Z,7.95
2016-12-31T02:26:22.488Z,7.95
2016-12-31T02:27:31.185Z,7.91
2016-12-31T02:28:39.892Z,7.93
2016-12-31T02:29:48.593Z,7.85
2016-12-31T02:30:57.296Z,7.99
2016-12-31T02:32:06.004Z,7.88
2016-12-31T02:33:14.704Z,7.88
2016-12-31T02:34:23.403Z,7.91
2016-12-31T02:35:32.103Z,7.88
2016-12-31T02:36:40.804Z,7.95
2016-12-31T02:37:49.501Z,7.88
2016-12-31T02:38:58.209Z,7.87
2016-12-31T02:40:06.917Z,7.84
2016-12-31T02:41:15.621Z,7.84
2016-12-31T02:42:24.320Z,7.77
2016-12-31T02:43:33.046Z,7.77
2016-12-31T02:44:41.745Z,7.85
2016-12-31T02:45:50.449Z,7.74
2016-12-31T02:46:59.153Z,7.75
2016-12-31T02:48:07.851Z,7.69
2016-12-31T02:49:16.550Z,7.78
2016-12-31T02:50:25.250Z,7.83
2016-12-31T02:51:33.949Z,7.77
2016-12-31T02:52:42.654Z,7.77
2016-12-31T02:53:51.358Z,7.81
2016-12-31T02:55:00.054Z,7.77
2016-12-31T02:56:08.757Z,7.78
2016-12-31T02:57:17.458Z,7.78
2016-12-31T02:58:26.159Z,7.74
2016-12-31T02:59:34.862Z,7.78
2016-12-31T03:00:43.569Z,7.81
2016-12-31T03:01:52.303Z,7.74
2016-12-31T03:03:01.002Z,7.77
2016-12-31T03:04:09.802Z,7.81
2016-12-31T03:05:18.501Z,7.75
2016-12-31T03:06:27.229Z,7.7
2016-12-31T03:07:35.933Z,7.74
2016-12-31T03:08:44.637Z,7.7
2016-12-31T03:09:53.339Z,7.74
2016-12-31T03:11:02.039Z,7.69
2016-12-31T03:12:10.744Z,7.69
2016-12-31T03:13:19.443Z,7.62
2016-12-31T03:14:28.138Z,7.61
2016-12-31T03:15:36.837Z,7.64
2016-12-31T03:16:45.539Z,7.64
2016-12-31T03:17:54.240Z,7.67
2016-12-31T03:19:02.939Z,7.59
2016-12-31T03:20:11.645Z,7.69
2016-12-31T03:21:20.345Z,7.64
2016-12-31T03:22:29.047Z,7.7
2016-12-31T03:23:37.748Z,7.61
2016-12-31T03:24:46.450Z,7.58
2016-12-31T03:25:55.146Z,7.51
2016-12-31T03:27:03.848Z,7.46
2016-12-31T03:28:12.551Z,7.4
2016-12-31T03:29:21.253Z,7.37
2016-12-31T03:30:29.959Z,7.37
2016-12-31T03:31:38.661Z,7.25
2016-12-31T03:32:47.363Z,7.18
2016-12-31T03:33:56.064Z,7.22
2016-12-31T03:35:04.765Z,7.07
2016-12-31T03:36:13.467Z,7.04
2016-12-31T03:37:22.169Z,6.96
2016-12-31T03:38:30.867Z,6.89
2016-12-31T03:39:39.571Z,6.89
2016-12-31T03:40:48.271Z,6.77
2016-12-31T03:41:56.972Z,6.83
2016-12-31T03:43:05.702Z,6.72
2016-12-31T03:44:14.406Z,6.7
2016-12-31T03:45:23.105Z,6.56
2016-12-31T03:46:31.811Z,6.62
2016-12-31T03:47:40.516Z,6.59
2016-12-31T03:48:49.217Z,6.5
2016-12-31T03:49:57.922Z,6.47
2016-12-31T03:51:06.634Z,6.34
2016-12-31T03:52:15.336Z,6.38
2016-12-31T03:53:24.039Z,6.34
2016-12-31T03:54:32.736Z,6.16
2016-12-31T03:55:41.440Z,6.22
2016-12-31T03:56:50.141Z,6.13
2016-12-31T03:57:58.843Z,6.16
2016-12-31T03:59:07.549Z,5.99
2016-12-31T04:00:16.259Z,6.07
2016-12-31T04:01:24.957Z,6.09
2016-12-31T04:02:33.654Z,5.91
2016-12-31T04:03:42.356Z,6.02
2016-12-31T04:04:51.087Z,6.01
2016-12-31T04:05:59.785Z,5.8
2016-12-31T04:07:08.485Z,5.88
2016-12-31T04:08:17.186Z,5.88
2016-12-31T04:09:25.886Z,5.83
2016-12-31T04:10:34.583Z,5.83
2016-12-31T04:11:43.286Z,5.83
2016-12-31T04:12:51.989Z,5.73
2016-12-31T04:14:00.686Z,5.81
2016-12-31T04:15:09.388Z,5.8
2016-12-31T04:16:18.086Z,5.67
2016-12-31T04:17:26.784Z,5.73
2016-12-31T04:18:35.484Z,5.69
2016-12-31T04:19:44.189Z,5.67
2016-12-31T04:20:52.924Z,5.64
2016-12-31T04:22:01.621Z,5.67
2016-12-31T04:23:10.324Z,5.62
2016-12-31T04:24:19.024Z,5.59
2016-12-31T04:25:27.728Z,5.52
2016-12-31T04:26:36.424Z,5.61
2016-12-31T04:27:45.126Z,5.65
2016-12-31T04:28:53.826Z,5.56
2016-12-31T04:30:02.522Z,5.58
2016-12-31T04:31:11.232Z,5.64
2016-12-31T04:32:19.931Z,5.65
2016-12-31T04:33:28.630Z,5.62
2016-12-31T04:34:37.334Z,5.72
2016-12-31T04:35:46.034Z,5.72
2016-12-31T04:36:54.750Z,5.62
2016-12-31T04:38:03.446Z,5.67
2016-12-31T04:39:12.149Z,5.65
2016-12-31T04:40:20.851Z,5.61
2016-12-31T04:41:29.554Z,5.7
2016-12-31T04:42:38.254Z,5.73
2016-12-31T04:43:46.952Z,5.73
2016-12-31T04:44:55.658Z,5.8
2016-12-31T04:46:04.366Z,5.83
2016-12-31T04:47:13.090Z,5.83
2016-12-31T04:48:21.791Z,5.99
2016-12-31T04:49:30.490Z,6.09
2016-12-31T04:50:39.192Z,6.2
2016-12-31T04:51:47.899Z,6.26
2016-12-31T04:52:56.599Z,6.38
2016-12-31T04:54:05.304Z,6.34
2016-12-31T04:55:14.005Z,6.44
2016-12-31T04:56:22.707Z,6.57
2016-12-31T04:57:31.409Z,6.64
2016-12-31T04:58:40.105Z,6.6
2016-12-31T04:59:48.806Z,6.59
2016-12-31T05:00:57.507Z,6.62
2016-12-31T05:02:06.208Z,6.57
2016-12-31T05:03:14.909Z,6.54
2016-12-31T05:04:23.609Z,6.57
2016-12-31T05:05:32.345Z,6.64
2016-12-31T05:06:41.044Z,6.6
2016-12-31T05:07:49.774Z,6.59
2016-12-31T05:08:58.475Z,6.53
2016-12-31T05:10:07.182Z,6.5
2016-12-31T05:11:15.884Z,6.44
2016-12-31T05:12:24.584Z,6.41
2016-12-31T05:13:33.285Z,6.41
2016-12-31T05:14:41.984Z,6.34
2016-12-31T05:15:50.713Z,6.25
2016-12-31T05:16:59.413Z,6.19
2016-12-31T05:18:08.113Z,6.1
2016-12-31T05:19:16.814Z,6.13
2016-12-31T05:20:25.514Z,6.12
2016-12-31T05:21:34.221Z,6.07
2016-12-31T05:22:42.928Z,6.13
2016-12-31T05:23:51.634Z,6.05
2016-12-31T05:25:00.334Z,5.94
2016-12-31T05:26:09.033Z,6.06
2016-12-31T05:27:17.731Z,6.02
2016-12-31T05:28:26.428Z,6.07
2016-12-31T05:29:35.128Z,6.02
2016-12-31T05:30:43.836Z,6.09
2016-12-31T05:31:52.542Z,5.98
2016-12-31T05:33:01.241Z,5.79
2016-12-31T05:34:09.941Z,5.74
2016-12-31T05:35:18.642Z,5.54
2016-12-31T05:36:27.345Z,5.47
2016-12-31T05:37:36.048Z,5.29
2016-12-31T05:38:44.746Z,5.28
2016-12-31T05:39:53.446Z,5.31
2016-12-31T05:41:02.148Z,5.33
2016-12-31T05:42:10.850Z,5.37
2016-12-31T05:43:19.552Z,5.37
2016-12-31T05:44:28.259Z,5.41
2016-12-31T05:45:36.959Z,5.49
2016-12-31T05:46:45.665Z,5.51
2016-12-31T05:47:54.370Z,5.56
2016-12-31T05:49:03.068Z,5.72
2016-12-31T05:50:11.768Z,5.84
2016-12-31T05:51:20.467Z,5.99
2016-12-31T05:52:29.168Z,6.07
2016-12-31T05:53:37.879Z,5.97
2016-12-31T05:54:46.579Z,5.99
2016-12-31T05:55:55.276Z,6.02
2016-12-31T05:57:03.974Z,6.05
2016-12-31T05:58:12.677Z,6.01
2016-12-31T05:59:21.408Z,6.15
2016-12-31T06:00:30.112Z,6.16
2016-12-31T06:01:38.812Z,6.15
2016-12-31T06:02:47.529Z,6.22
2016-12-31T06:03:56.231Z,6.29
2016-12-31T06:05:04.933Z,6.36
2016-12-31T06:06:13.630Z,6.36
2016-12-31T06:07:22.334Z,6.36
2016-12-31T06:08:31.037Z,6.32
2016-12-31T06:09:39.736Z,6.32
2016-12-31T06:10:48.455Z,6.25
2016-12-31T06:11:57.159Z,6.2
2016-12-31T06:13:05.857Z,6.09
2016-12-31T06:14:14.558Z,6.06
2016-12-31T06:15:23.257Z,6.06
2016-12-31T06:16:31.957Z,5.99
2016-12-31T06:17:40.658Z,5.98
2016-12-31T06:18:49.361Z,6.01
2016-12-31T06:19:58.079Z,6.05
2016-12-31T06:21:06.778Z,6.01
2016-12-31T06:22:15.481Z,5.97
2016-12-31T06:23:24.185Z,6.06
2016-12-31T06:24:32.880Z,5.97
2016-12-31T06:25:41.583Z,5.91
2016-12-31T06:26:50.290Z,5.94
2016-12-31T06:27:58.990Z,5.9
2016-12-31T06:29:07.689Z,5.9
2016-12-31T06:30:16.388Z,5.92
2016-12-31T06:31:25.088Z,5.94
2016-12-31T06:32:33.787Z,5.97
2016-12-31T06:33:42.488Z,5.94
2016-12-31T06:34:51.219Z,6.01
2016-12-31T06:35:59.918Z,6.06
2016-12-31T06:37:08.620Z,6.15
2016-12-31T06:38:17.319Z,6.12
2016-12-31T06:39:26.025Z,6.13
2016-12-31T06:40:34.755Z,6.09
2016-12-31T06:41:43.456Z,6.07
2016-12-31T06:42:52.160Z,6.07
2016-12-31T06:44:00.862Z,6.15
2016-12-31T06:45:09.958Z,6.19
2016-12-31T06:46:18.660Z,6.19
2016-12-31T06:47:27.358Z,6.29
2016-12-31T06:48:36.062Z,6.16
2016-12-31T06:49:44.759Z,6.19
2016-12-31T06:50:53.859Z,6.17
2016-12-31T06:52:02.560Z,6.34
2016-12-31T06:53:11.306Z,6.43
2016-12-31T06:54:20.005Z,6.53
2016-12-31T06:55:28.727Z,6.6
2016-12-31T06:56:37.457Z,6.57
2016-12-31T06:57:46.156Z,6.57
2016-12-31T06:58:54.856Z,6.77
2016-12-31T07:00:03.559Z,6.78
2016-12-31T07:01:12.270Z,6.82
2016-12-31T07:02:20.973Z,6.72
2016-12-31T07:03:29.671Z,6.87
2016-12-31T07:04:38.371Z,6.78
2016-12-31T07:05:47.072Z,6.87
2016-12-31T07:06:55.774Z,6.82
2016-12-31T07:08:04.473Z,6.8
2016-12-31T07:09:13.168Z,6.83
2016-12-31T07:10:21.872Z,6.83
2016-12-31T07:11:30.574Z,6.87
2016-12-31T07:12:39.272Z,6.87
2016-12-31T07:13:47.972Z,6.95
2016-12-31T07:14:56.668Z,7.04
2016-12-31T07:16:05.370Z,7.05
2016-12-31T07:17:14.069Z,7.05
2016-12-31T07:18:22.773Z,7.11
2016-12-31T07:19:31.469Z,6.89
2016-12-31T07:20:40.169Z,6.96
2016-12-31T07:21:48.865Z,7.05
2016-12-31T07:22:57.565Z,7.05
2016-12-31T07:24:06.267Z,6.96
2016-12-31T07:25:14.965Z,6.97
2016-12-31T07:26:23.666Z,6.89
2016-12-31T07:27:32.365Z,6.92
2016-12-31T07:28:41.066Z,6.86
2016-12-31T07:29:49.768Z,6.9
2016-12-31T07:30:58.498Z,6.83
2016-12-31T07:32:07.197Z,6.82
2016-12-31T07:33:15.899Z,6.7
2016-12-31T07:34:24.608Z,6.68
2016-12-31T07:35:33.315Z,6.8
2016-12-31T07:36:42.013Z,6.77
2016-12-31T07:37:50.713Z,6.83
2016-12-31T07:38:59.419Z,6.86
2016-12-31T07:40:08.117Z,6.97
2016-12-31T07:41:16.826Z,6.92
2016-12-31T07:42:25.554Z,7.03
2016-12-31T07:43:34.252Z,7.13
2016-12-31T07:44:42.951Z,7.26
2016-12-31T07:45:51.656Z,7.36
2016-12-31T07:47:00.360Z,7.28
2016-12-31T07:48:09.062Z,7.46
2016-12-31T07:49:17.762Z,7.41
2016-12-31T07:50:26.463Z,7.44
2016-12-31T07:51:35.165Z,7.46
2016-12-31T07:52:43.866Z,7.59
2016-12-31T07:53:52.566Z,7.61
2016-12-31T07:55:01.268Z,7.14
2016-12-31T07:56:09.970Z,6.71
2016-12-31T07:57:19.070Z,6.22
2016-12-31T07:58:27.786Z,5.72
2016-12-31T07:59:36.481Z,5.23
2016-12-31T08:00:45.182Z,5.19
2016-12-31T08:01:53.888Z,5
2016-12-31T08:03:02.587Z,4.79
2016-12-31T08:04:11.295Z,4.61
2016-12-31T08:05:20.038Z,4.5
2016-12-31T08:06:28.735Z,4.32
2016-12-31T08:07:37.435Z,4.34
2016-12-31T08:08:46.134Z,4.22
2016-12-31T08:09:54.830Z,4.18
2016-12-31T08:11:03.530Z,4.09
2016-12-31T08:12:12.224Z,4.09
2016-12-31T08:13:20.924Z,4.04
2016-12-31T08:14:29.620Z,4.02
2016-12-31T08:15:38.323Z,4.06
2016-12-31T08:16:47.023Z,4.03
2016-12-31T08:17:55.720Z,3.96
2016-12-31T08:19:04.425Z,3.94
2016-12-31T08:20:13.155Z,4
2016-12-31T08:21:21.855Z,3.95
2016-12-31T08:22:30.552Z,3.86
2016-12-31T08:23:39.253Z,3.89
2016-12-31T08:24:47.952Z,3.88
2016-12-31T08:25:56.648Z,3.84
2016-12-31T08:27:05.353Z,3.76
2016-12-31T08:28:14.057Z,3.78
2016-12-31T08:29:22.753Z,3.94
2016-12-31T08:30:31.453Z,3.96
2016-12-31T08:31:40.151Z,4.14
2016-12-31T08:32:48.853Z,4.22
2016-12-31T08:33:57.555Z,4.31
2016-12-31T08:35:06.258Z,4.39
2016-12-31T08:36:14.954Z,4.42
2016-12-31T08:37:23.676Z,4.46
2016-12-31T08:38:32.379Z,4.4
2016-12-31T08:39:41.078Z,4.39
2016-12-31T08:40:49.777Z,4.4
2016-12-31T08:41:58.474Z,4.31
2016-12-31T08:43:07.175Z,4.22
2016-12-31T08:44:15.870Z,4.28
2016-12-31T08:45:24.576Z,4.16
2016-12-31T08:46:33.273Z,4.09
2016-12-31T08:47:41.966Z,4.04
2016-12-31T08:48:50.665Z,4.06
2016-12-31T08:49:59.363Z,3.99
2016-12-31T08:51:08.066Z,4.03
2016-12-31T08:52:16.762Z,3.99
2016-12-31T08:53:25.466Z,3.82
2016-12-31T08:54:34.171Z,3.92
2016-12-31T08:55:42.897Z,3.94
2016-12-31T08:56:51.593Z,3.95
2016-12-31T08:58:00.293Z,3.92
2016-12-31T08:59:08.989Z,3.81
2016-12-31T09:00:17.697Z,3.89
2016-12-31T09:01:26.400Z,4.16
2016-12-31T09:02:35.098Z,4.4
2016-12-31T09:03:43.823Z,4.53
2016-12-31T09:04:52.519Z,4.78
2016-12-31T09:06:01.220Z,5.02
2016-12-31T09:07:09.916Z,5.22
2016-12-31T09:08:18.614Z,5.36
2016-12-31T09:09:27.311Z,5.46
2016-12-31T09:10:36.010Z,5.62
2016-12-31T09:11:44.705Z,5.77
2016-12-31T09:12:53.408Z,5.92
2016-12-31T09:14:02.119Z,5.94
2016-12-31T09:15:10.814Z,6.15
2016-12-31T09:16:19.513Z,6.16
2016-12-31T09:17:28.213Z,6.38
2016-12-31T09:18:36.910Z,6.52
2016-12-31T09:19:45.610Z,6.62
2016-12-31T09:20:54.307Z,6.74
2016-12-31T09:22:03.008Z,6.85
2016-12-31T09:23:11.710Z,6.83
2016-12-31T09:24:20.407Z,6.89
2016-12-31T09:25:29.108Z,6.95
2016-12-31T09:26:37.837Z,7.05
2016-12-31T09:27:46.536Z,7.05
2016-12-31T09:28:55.289Z,7.11
2016-12-31T09:30:04.388Z,7.13
2016-12-31T09:31:13.101Z,7.23
2016-12-31T09:32:21.796Z,7.28
2016-12-31T09:33:30.501Z,7.26
2016-12-31T09:34:39.199Z,7.23
2016-12-31T09:35:47.908Z,7.22
2016-12-31T09:36:56.611Z,7.18
2016-12-31T09:38:05.322Z,7.18
2016-12-31T09:39:14.020Z,7.22
2016-12-31T09:40:22.728Z,7.14
2016-12-31T09:41:31.428Z,7.18
2016-12-31T09:42:40.129Z,7.15
2016-12-31T09:43:48.829Z,7.14
2016-12-31T09:44:57.524Z,7.15
2016-12-31T09:46:06.249Z,7.11
2016-12-31T09:47:14.953Z,7.04
2016-12-31T09:48:23.651Z,7.05
2016-12-31T09:49:32.351Z,7.07
2016-12-31T09:50:41.049Z,7.07
2016-12-31T09:51:49.750Z,7.1
2016-12-31T09:52:58.455Z,7.11
2016-12-31T09:54:07.162Z,7.05
2016-12-31T09:55:15.860Z,7.18
2016-12-31T09:56:24.561Z,7.1
2016-12-31T09:57:33.266Z,7.15
2016-12-31T09:58:41.972Z,7.15
2016-12-31T09:59:50.670Z,7.1
2016-12-31T10:00:59.369Z,7.13
2016-12-31T10:02:08.070Z,7.15
2016-12-31T10:03:16.769Z,7.1
2016-12-31T10:04:25.478Z,7.19
2016-12-31T10:05:34.176Z,7.13
2016-12-31T10:06:42.884Z,7.21
2016-12-31T10:07:51.606Z,7.21
2016-12-31T10:09:00.305Z,7.13
2016-12-31T10:10:09.009Z,7.21
2016-12-31T10:11:17.708Z,7.15
2016-12-31T10:12:26.407Z,7.14
2016-12-31T10:13:35.154Z,7.22
2016-12-31T10:14:43.848Z,7.29
2016-12-31T10:15:52.549Z,7.32
2016-12-31T10:17:01.249Z,7.22
2016-12-31T10:18:09.946Z,7.36
2016-12-31T10:19:18.649Z,7.22
2016-12-31T10:20:27.354Z,7.26
2016-12-31T10:21:36.051Z,7.33
2016-12-31T10:22:44.751Z,7.36
2016-12-31T10:23:53.448Z,7.4
2016-12-31T10:25:02.150Z,7.39
2016-12-31T10:26:10.849Z,7.44
2016-12-31T10:27:19.551Z,7.55
2016-12-31T10:28:28.247Z,7.58
2016-12-31T10:29:36.950Z,7.59
2016-12-31T10:30:45.663Z,7.58
2016-12-31T10:31:54.374Z,7.51
2016-12-31T10:33:03.076Z,7.47
2016-12-31T10:34:11.778Z,7.4
2016-12-31T10:35:20.486Z,7.25
2016-12-31T10:36:29.193Z,7.33
2016-12-31T10:37:37.893Z,7.1
2016-12-31T10:38:46.623Z,7.19
2016-12-31T10:39:55.318Z,7.18
2016-12-31T10:41:04.020Z,7.11
2016-12-31T10:42:12.725Z,7.08
2016-12-31T10:43:21.423Z,7.11
2016-12-31T10:44:30.121Z,6.97
2016-12-31T10:45:38.823Z,7.15
2016-12-31T10:46:47.522Z,7.18
2016-12-31T10:47:56.228Z,7.18
2016-12-31T10:49:04.928Z,7.29
2016-12-31T10:50:13.630Z,7.29
2016-12-31T10:51:22.327Z,7.26
2016-12-31T10:52:31.028Z,6.96
2016-12-31T10:53:39.729Z,6.62
2016-12-31T10:54:48.430Z,6.22
2016-12-31T10:55:57.131Z,5.97
2016-12-31T10:57:05.840Z,5.94
2016-12-31T10:58:14.540Z,5.87
2016-12-31T10:59:23.244Z,5.79
2016-12-31T11:00:31.946Z,5.61
2016-12-31T11:01:40.647Z,5.69
2016-12-31T11:02:49.350Z,5.67
2016-12-31T11:03:58.049Z,5.64
2016-12-31T11:05:07.145Z,5.56
2016-12-31T11:06:15.848Z,5.56
2016-12-31T11:07:24.549Z,5.51
2016-12-31T11:08:33.249Z,5.61
2016-12-31T11:09:41.949Z,5.7
2016-12-31T11:10:50.655Z,5.76
2016-12-31T11:11:59.353Z,5.88
2016-12-31T11:13:08.054Z,6.02
2016-12-31T11:14:16.757Z,6.26
2016-12-31T11:15:25.457Z,6.26
2016-12-31T11:16:34.153Z,6.35
2016-12-31T11:17:42.861Z,6.31
2016-12-31T11:18:51.562Z,6.44
2016-12-31T11:20:00.267Z,6.46
2016-12-31T11:21:08.967Z,6.44
2016-12-31T11:22:17.668Z,6.52
2016-12-31T11:23:26.379Z,6.53
2016-12-31T11:24:35.080Z,6.57
2016-12-31T11:25:43.778Z,6.56
2016-12-31T11:26:52.482Z,6.64
2016-12-31T11:28:01.180Z,6.6
2016-12-31T11:29:09.896Z,6.65
2016-12-31T11:30:18.592Z,6.62
2016-12-31T11:31:27.293Z,6.74
2016-12-31T11:32:35.990Z,6.74
2016-12-31T11:33:44.687Z,6.82
2016-12-31T11:34:53.387Z,6.8
2016-12-31T11:36:02.086Z,6.83
2016-12-31T11:37:10.787Z,6.82
2016-12-31T11:38:19.487Z,6.75
2016-12-31T11:39:28.208Z,6.74
2016-12-31T11:40:36.912Z,6.74
2016-12-31T11:41:45.614Z,6.74
2016-12-31T11:42:54.314Z,6.78
2016-12-31T11:44:03.015Z,6.72
2016-12-31T11:45:11.816Z,6.92
2016-12-31T11:46:20.516Z,6.8
2016-12-31T11:47:29.223Z,6.89
2016-12-31T11:48:37.928Z,6.92
2016-12-31T11:49:46.628Z,6.82
2016-12-31T11:50:55.329Z,6.83
2016-12-31T11:52:04.433Z,6.8
2016-12-31T11:53:13.132Z,6.82
2016-12-31T11:54:21.832Z,6.77
2016-12-31T11:55:30.531Z,6.82
2016-12-31T11:56:39.285Z,6.75
2016-12-31T11:57:47.984Z,6.8
2016-12-31T11:58:56.691Z,6.74
2016-12-31T12:00:05.394Z,6.77
2016-12-31T12:01:14.094Z,6.71
2016-12-31T12:02:22.788Z,6.77
2016-12-31T12:03:31.484Z,6.75
2016-12-31T12:04:40.187Z,6.75
2016-12-31T12:05:48.891Z,6.82
2016-12-31T12:06:57.587Z,6.77
2016-12-31T12:08:06.293Z,6.71
2016-12-31T12:09:14.990Z,6.59
2016-12-31T12:10:23.700Z,6.64
2016-12-31T12:11:32.395Z,6.54
2016-12-31T12:12:41.096Z,6.59
2016-12-31T12:13:49.809Z,6.67
2016-12-31T12:14:58.507Z,6.56
2016-12-31T12:16:07.212Z,6.59
2016-12-31T12:17:15.915Z,6.68
2016-12-31T12:18:24.612Z,6.62
2016-12-31T12:19:33.313Z,6.72
2016-12-31T12:20:42.010Z,6.72
2016-12-31T12:21:50.709Z,6.71
2016-12-31T12:22:59.412Z,6.71
2016-12-31T12:24:08.113Z,6.62
2016-12-31T12:25:16.812Z,6.68
2016-12-31T12:26:25.509Z,6.64
2016-12-31T12:27:34.216Z,6.64
2016-12-31T12:28:42.917Z,6.56
2016-12-31T12:29:51.617Z,6.59
2016-12-31T12:31:00.320Z,6.59
2016-12-31T12:32:09.021Z,6.57
2016-12-31T12:33:17.717Z,6.6
2016-12-31T12:34:26.417Z,6.59
2016-12-31T12:35:35.119Z,6.72
2016-12-31T12:36:43.817Z,6.71
2016-12-31T12:37:52.519Z,6.72
2016-12-31T12:39:01.217Z,6.77
2016-12-31T12:40:09.915Z,6.78
2016-12-31T12:41:18.620Z,6.75
2016-12-31T12:42:27.320Z,6.74
2016-12-31T12:43:36.026Z,6.77
2016-12-31T12:44:44.725Z,6.74
2016-12-31T12:45:53.433Z,6.8
2016-12-31T12:47:02.134Z,6.71
2016-12-31T12:48:11.229Z,6.75
2016-12-31T12:49:19.926Z,6.74
2016-12-31T12:50:28.629Z,6.78
2016-12-31T12:51:37.335Z,6.74
2016-12-31T12:52:46.037Z,6.74
2016-12-31T12:53:54.733Z,6.72
2016-12-31T12:55:03.435Z,6.8
2016-12-31T12:56:12.148Z,6.83
2016-12-31T12:57:20.848Z,6.78
2016-12-31T12:58:29.547Z,6.77
2016-12-31T12:59:38.246Z,6.72
2016-12-31T13:00:46.948Z,6.8
2016-12-31T13:01:55.646Z,6.72
2016-12-31T13:03:04.348Z,6.68
2016-12-31T13:04:13.046Z,6.74
2016-12-31T13:05:21.744Z,6.71
2016-12-31T13:06:30.443Z,6.71
2016-12-31T13:07:39.146Z,6.72
2016-12-31T13:08:47.852Z,6.67
2016-12-31T13:09:56.555Z,6.59
2016-12-31T13:11:05.255Z,6.62
2016-12-31T13:12:13.954Z,6.59
2016-12-31T13:13:22.658Z,6.64
2016-12-31T13:14:31.361Z,6.68
2016-12-31T13:15:40.065Z,6.74
2016-12-31T13:16:48.765Z,6.77
2016-12-31T13:17:57.468Z,6.7
2016-12-31T13:19:06.182Z,6.6
2016-12-31T13:20:14.881Z,6.6
2016-12-31T13:21:23.583Z,6.7
2016-12-31T13:22:32.282Z,6.74
2016-12-31T13:23:40.988Z,6.75
2016-12-31T13:24:49.689Z,6.77
2016-12-31T13:25:58.415Z,6.83
2016-12-31T13:27:07.115Z,6.82
2016-12-31T13:28:15.813Z,6.82
2016-12-31T13:29:24.512Z,6.89
2016-12-31T13:30:33.213Z,6.95
2016-12-31T13:31:41.915Z,6.93
2016-12-31T13:32:50.611Z,6.9
2016-12-31T13:33:59.312Z,6.92
2016-12-31T13:35:08.013Z,6.95
2016-12-31T13:36:16.743Z,7.03
2016-12-31T13:37:25.440Z,7.05
2016-12-31T13:38:34.148Z,7.03
2016-12-31T13:39:42.852Z,6.96
2016-12-31T13:40:51.578Z,6.95
2016-12-31T13:42:00.281Z,6.92
2016-12-31T13:43:08.982Z,6.92
2016-12-31T13:44:17.683Z,6.89
2016-12-31T13:45:26.736Z,6.86
2016-12-31T13:46:35.434Z,6.92
2016-12-31T13:47:44.132Z,6.96
2016-12-31T13:48:52.835Z,6.92
2016-12-31T13:50:01.532Z,7.08
2016-12-31T13:51:10.233Z,7.07
2016-12-31T13:52:18.935Z,7.05
2016-12-31T13:53:27.634Z,7.08
2016-12-31T13:54:36.338Z,7.04
2016-12-31T13:55:45.101Z,7.07
2016-12-31T13:56:53.804Z,7.13
2016-12-31T13:58:02.501Z,7.04
2016-12-31T13:59:11.207Z,6.96
2016-12-31T14:00:19.903Z,6.89
2016-12-31T14:01:28.605Z,6.9
2016-12-31T14:02:37.304Z,6.93
2016-12-31T14:03:46.004Z,6.89
2016-12-31T14:04:54.711Z,6.89
2016-12-31T14:06:03.410Z,6.89
2016-12-31T14:07:12.115Z,6.89
2016-12-31T14:08:20.821Z,6.75
2016-12-31T14:09:29.518Z,6.77
2016-12-31T14:10:38.223Z,6.74
2016-12-31T14:11:46.927Z,6.54
2016-12-31T14:12:55.623Z,6.62
2016-12-31T14:14:04.320Z,6.56
2016-12-31T14:15:13.021Z,6.52
2016-12-31T14:16:21.722Z,6.47
2016-12-31T14:17:30.421Z,6.36
2016-12-31T14:18:39.125Z,6.36
2016-12-31T14:19:47.827Z,6.38
2016-12-31T14:20:56.524Z,6.2
2016-12-31T14:22:05.221Z,6.15
2016-12-31T14:23:13.927Z,6.1
2016-12-31T14:24:23.025Z,6.1
2016-12-31T14:25:31.723Z,6.1
2016-12-31T14:26:40.429Z,6.1
2016-12-31T14:27:49.129Z,6.12
2016-12-31T14:28:57.824Z,6.1
2016-12-31T14:30:06.556Z,6.15
2016-12-31T14:31:15.257Z,5.95
2016-12-31T14:32:23.981Z,6.02
2016-12-31T14:33:32.678Z,6.01
2016-12-31T14:34:41.375Z,5.92
2016-12-31T14:35:50.072Z,5.9
2016-12-31T14:36:58.774Z,5.83
2016-12-31T14:38:07.472Z,5.76
2016-12-31T14:39:16.168Z,5.79
2016-12-31T14:40:24.863Z,5.9
2016-12-31T14:41:33.564Z,5.79
2016-12-31T14:42:42.266Z,5.79
2016-12-31T14:43:50.964Z,5.73
2016-12-31T14:44:59.671Z,5.7
2016-12-31T14:46:08.768Z,5.7
2016-12-31T14:47:17.501Z,5.69
2016-12-31T14:48:26.199Z,5.56
2016-12-31T14:49:34.906Z,5.51
2016-12-31T14:50:43.603Z,5.43
2016-12-31T14:51:52.304Z,5.29
2016-12-31T14:53:01.003Z,5.36
2016-12-31T14:54:09.703Z,5.33
2016-12-31T14:55:18.412Z,5.34
2016-12-31T14:56:27.138Z,5.31
2016-12-31T14:57:35.839Z,5.34
2016-12-31T14:58:44.545Z,5.28
2016-12-31T14:59:53.243Z,5.23
2016-12-31T15:01:01.941Z,5.25
2016-12-31T15:02:10.640Z,5.19
2016-12-31T15:03:19.336Z,5.13
2016-12-31T15:04:28.032Z,5.12
2016-12-31T15:05:36.734Z,5.08
2016-12-31T15:06:45.460Z,5.15
2016-12-31T15:07:54.160Z,5.01
2016-12-31T15:09:02.862Z,5.12
2016-12-31T15:10:11.563Z,5.02
2016-12-31T15:11:20.258Z,5.05
2016-12-31T15:12:28.951Z,5.01
2016-12-31T15:13:37.649Z,4.98
2016-12-31T15:14:46.354Z,4.97
2016-12-31T15:15:55.080Z,5.01
2016-12-31T15:17:03.774Z,5
2016-12-31T15:18:12.474Z,5.04